Ncc Rabigh — HZQA — position and weather

sailwx.info

Track history (hours):
 
Tides and Currents Weather Stations Pressure Air Temp Water Temp Dewpoint Dewpoint Depression Visibility Wind Speed Wind Dir Waves Ship Positions

Ncc Rabigh

Last reported at 2015-Aug-02 08:18 UTC. Time now 2015-Aug-31 04:44 UTC.
Position N 03°12' E 100°35'.
Warning: this ship's position is 28 days out of date.

Length 183 m; draft 8.8 m.

Type: Ship (hazmat cat A). MMSI: 403575000.

Date/timePositionNaut miles runAvg speedWind from/ knotsBaromVisibWave heightAir tempDewpointWater temp
2015-Aug-02 08:18N 03°12' E 100°35'2614.8
2015-Aug-02 06:33N 02°55' E 100°55'3216.2
2015-Aug-02 04:33N 02°39' E 101°23'1815.1
2015-Aug-02 03:23N 02°29' E 101°38'14414.4
2015-Aug-01 17:24N 01°12' E 103°39'2 0.1
2015-Aug-01 04:26N 01°14' E 103°39'5 4.5
2015-Aug-01 03:26N 01°10' E 103°42'7 7.4
2015-Aug-01 02:32N 01°11' E 103°48'1010.5
2015-Aug-01 01:34N 01°15' E 103°58'1211.7
2015-Aug-01 00:32N 01°17' E 104°10'  
Track history (hours):
 
Tides and Currents Weather Stations Pressure Air Temp Water Temp Dewpoint Dewpoint Depression Visibility Wind Speed Wind Dir Waves Ship Positions

Ncc Rabigh

Last reported at 2015-Aug-02 08:18 UTC. Time now 2015-Aug-31 04:44 UTC.
Position N 03°12' E 100°35'.
Warning: this ship's position is 28 days out of date.

Length 183 m; draft 8.8 m.

Type: Ship (hazmat cat A). MMSI: 403575000.

Date/timePositionNaut miles runAvg speedWind from/ knotsBaromVisibWave heightAir tempDewpointWater temp
2015-Aug-02 08:18N 03°12' E 100°35'2614.8
2015-Aug-02 06:33N 02°55' E 100°55'3216.2
2015-Aug-02 04:33N 02°39' E 101°23'1815.1
2015-Aug-02 03:23N 02°29' E 101°38'14414.4
2015-Aug-01 17:24N 01°12' E 103°39'2 0.1
2015-Aug-01 04:26N 01°14' E 103°39'5 4.5
2015-Aug-01 03:26N 01°10' E 103°42'7 7.4
2015-Aug-01 02:32N 01°11' E 103°48'1010.5
2015-Aug-01 01:34N 01°15' E 103°58'1211.7
2015-Aug-01 00:32N 01°17' E 104°10'  

Dump ship's entire track history